Time;durP1;ratioP1;P1;durP2;ratioP2;P2;SDS_P1;SDS_P2;PMS_P1;PMS_P2;Temp;Humidity;BMP_temperature;BMP_pressure;BME280_temperature;BME280_humidity;BME280_pressure;Samples;Min_cycle;Max_cycle;Signal;HPM_P1;HPM_P2
2023/03/16 00:01:25;;;;;;;27.47;11.40;;;3.20;96.10;;;;;;5050130;28;20494;-59
2023/03/16 00:03:53;;;;;;;19.80;10.80;;;3.20;96.20;;;;;;5064012;28;20574;-58
2023/03/16 00:06:20;;;;;;;27.77;12.63;;;3.10;96.40;;;;;;5048906;28;20822;-59
2023/03/16 00:08:47;;;;;;;22.23;9.23;;;3.10;96.30;;;;;;5044548;28;20971;-59
2023/03/16 00:11:13;;;;;;;40.70;18.83;;;3.10;96.40;;;;;;5053761;28;20487;-58
2023/03/16 00:13:41;;;;;;;21.33;10.87;;;3.10;96.60;;;;;;5046336;28;20550;-59
2023/03/16 00:16:08;;;;;;;31.77;14.27;;;3.10;96.50;;;;;;5053849;28;20481;-59
2023/03/16 00:18:37;;;;;;;19.73;10.80;;;3.10;96.50;;;;;;5063101;28;20902;-59
2023/03/16 00:21:06;;;;;;;27.40;13.63;;;3.20;96.40;;;;;;5059365;28;20477;-59
2023/03/16 00:23:34;;;;;;;21.10;10.07;;;3.10;96.30;;;;;;5038406;28;20493;-59
2023/03/16 00:26:03;;;;;;;29.63;12.40;;;3.10;96.20;;;;;;5036451;28;20478;-59
2023/03/16 00:28:33;;;;;;;22.97;11.00;;;3.10;96.30;;;;;;5041444;28;20712;-59
2023/03/16 00:31:01;;;;;;;29.47;13.47;;;3.00;96.40;;;;;;5049269;28;20561;-59
2023/03/16 00:33:28;;;;;;;34.83;14.73;;;2.90;96.70;;;;;;5047518;28;20900;-59
2023/03/16 00:36:01;;;;;;;32.17;14.77;;;2.90;96.80;;;;;;5055566;28;20490;-59
2023/03/16 00:38:31;;;;;;;39.63;16.07;;;2.90;96.90;;;;;;5053476;28;20489;-59
2023/03/16 00:40:57;;;;;;;43.57;18.70;;;2.90;97.10;;;;;;5044805;28;21025;-58
2023/03/16 00:43:26;;;;;;;38.43;17.07;;;2.90;97.20;;;;;;5040881;28;20985;-60
2023/03/16 00:46:00;;;;;;;41.43;17.43;;;2.90;97.10;;;;;;5036358;28;21258;-59
2023/03/16 00:48:26;;;;;;;41.90;17.83;;;2.90;96.90;;;;;;5044445;28;20507;-59
2023/03/16 00:50:53;;;;;;;44.27;18.00;;;3.00;96.70;;;;;;5064526;28;20644;-59
2023/03/16 00:53:21;;;;;;;42.37;18.63;;;2.90;96.30;;;;;;5051461;28;20503;-59
2023/03/16 00:55:52;;;;;;;29.77;13.90;;;2.90;96.10;;;;;;5050183;28;20915;-60
2023/03/16 00:58:19;;;;;;;41.20;18.80;;;2.80;96.20;;;;;;5045234;28;21041;-59
2023/03/16 01:00:47;;;;;;;25.03;13.60;;;2.80;96.30;;;;;;5065800;28;20486;-59
2023/03/16 01:03:14;;;;;;;35.03;15.83;;;2.80;96.30;;;;;;5052808;28;20482;-58
2023/03/16 01:05:41;;;;;;;20.87;11.00;;;2.70;96.40;;;;;;5065238;28;20475;-58
2023/03/16 01:08:08;;;;;;;39.00;18.53;;;2.70;96.40;;;;;;5060716;28;20502;-59
2023/03/16 01:10:34;;;;;;;24.50;13.00;;;2.60;96.60;;;;;;5049827;28;20920;-58
2023/03/16 01:13:03;;;;;;;31.83;16.30;;;2.60;96.60;;;;;;5052146;28;20898;-58
2023/03/16 01:15:29;;;;;;;32.60;16.57;;;2.60;96.40;;;;;;5047774;28;20566;-58
2023/03/16 01:17:56;;;;;;;29.93;12.30;;;2.60;96.10;;;;;;5049755;28;20474;-58
2023/03/16 01:20:23;;;;;;;26.83;13.27;;;2.30;96.20;;;;;;5049591;28;20474;-58
2023/03/16 01:22:50;;;;;;;26.57;12.57;;;2.10;96.40;;;;;;5058102;28;20482;-58
2023/03/16 01:25:18;;;;;;;35.80;14.93;;;2.10;97.10;;;;;;5055959;28;20502;-58
2023/03/16 01:27:45;;;;;;;18.83;10.57;;;2.10;97.00;;;;;;5066180;28;20551;-58
2023/03/16 01:30:13;;;;;;;35.87;15.60;;;2.20;96.90;;;;;;5052941;28;20565;-59
2023/03/16 01:32:40;;;;;;;18.90;10.23;;;2.30;96.90;;;;;;5040191;28;20490;-58
2023/03/16 01:35:08;;;;;;;41.37;15.50;;;2.30;96.80;;;;;;5044841;28;20487;-59
2023/03/16 01:37:34;;;;;;;25.50;12.27;;;2.30;96.80;;;;;;5054259;28;20493;-59
2023/03/16 01:40:05;;;;;;;23.50;12.07;;;2.40;96.90;;;;;;5064204;28;20935;-59
2023/03/16 01:42:32;;;;;;;22.80;11.40;;;2.30;96.90;;;;;;5063740;28;20732;-59
2023/03/16 01:45:04;;;;;;;27.70;10.60;;;2.30;96.90;;;;;;5074700;28;21005;-59
2023/03/16 01:47:36;;;;;;;25.27;12.10;;;2.40;97.10;;;;;;5053307;28;20482;-59
2023/03/16 01:50:05;;;;;;;30.07;13.97;;;2.40;96.90;;;;;;5069704;28;20562;-59
2023/03/16 01:52:35;;;;;;;20.50;11.23;;;2.50;96.80;;;;;;5062593;28;20473;-60
2023/03/16 01:55:06;;;;;;;22.93;11.57;;;2.50;96.70;;;;;;5071694;28;20500;-59
2023/03/16 01:57:36;;;;;;;26.00;13.07;;;2.30;96.20;;;;;;5069789;28;20473;-59
2023/03/16 02:00:09;;;;;;;41.10;12.47;;;2.20;96.50;;;;;;5052699;28;20475;-59
2023/03/16 02:02:42;;;;;;;26.37;13.77;;;2.10;96.80;;;;;;5069145;28;20913;-59
2023/03/16 02:05:13;;;;;;;40.90;16.50;;;2.10;96.90;;;;;;5068376;28;20858;-60
2023/03/16 02:07:44;;;;;;;20.00;10.90;;;2.10;97.00;;;;;;5051863;28;20894;-59
2023/03/16 02:10:12;;;;;;;41.73;15.53;;;2.20;97.00;;;;;;5032726;28;20863;-60
2023/03/16 02:12:39;;;;;;;36.83;11.43;;;2.20;96.60;;;;;;5068078;28;20474;-59
2023/03/16 02:15:07;;;;;;;38.40;16.70;;;2.20;96.60;;;;;;5074428;28;21011;-60
2023/03/16 02:17:35;;;;;;;29.63;12.23;;;2.20;96.50;;;;;;5063666;28;20486;-59
2023/03/16 02:20:16;;;;;;;20.60;9.50;;;2.10;96.40;;;;;;5036356;28;20473;-58
2023/03/16 02:22:46;;;;;;;25.77;12.57;;;2.80;96.90;;;;;;5034610;28;20485;-59
2023/03/16 02:25:16;;;;;;;34.60;15.20;;;2.10;96.70;;;;;;5059272;28;20478;-59
2023/03/16 02:27:48;;;;;;;19.20;10.10;;;2.10;96.70;;;;;;5058446;28;20494;-59
2023/03/16 02:30:17;;;;;;;34.87;14.13;;;2.10;96.70;;;;;;5074070;28;20481;-59
2023/03/16 02:32:45;;;;;;;26.80;10.80;;;2.10;96.40;;;;;;5078011;28;20880;-59
2023/03/16 02:35:13;;;;;;;44.93;17.33;;;2.10;96.50;;;;;;5078525;28;20478;-59
2023/03/16 02:37:40;;;;;;;29.97;11.90;;;2.10;96.60;;;;;;5067824;28;20493;-59
2023/03/16 02:40:22;;;;;;;46.93;17.30;;;2.20;96.60;;;;;;5066657;28;20505;-59
2023/03/16 02:42:55;;;;;;;29.50;11.30;;;2.10;96.40;;;;;;5065241;28;20494;-59
2023/03/16 02:45:25;;;;;;;24.57;9.90;;;1.90;96.80;;;;;;5074493;28;20490;-59
2023/03/16 02:47:54;;;;;;;29.37;11.80;;;1.80;97.30;;;;;;5066705;28;20957;-59
2023/03/16 02:50:21;;;;;;;29.73;12.13;;;1.80;97.50;;;;;;5059712;28;20551;-59
2023/03/16 02:52:48;;;;;;;21.10;9.87;;;1.90;97.40;;;;;;5075541;28;20555;-59
2023/03/16 02:55:15;;;;;;;35.93;13.27;;;1.90;97.30;;;;;;5073131;28;20993;-60
2023/03/16 02:57:41;;;;;;;27.70;11.23;;;2.00;97.30;;;;;;5058618;28;20478;-59
2023/03/16 03:00:13;;;;;;;53.27;18.53;;;2.10;97.30;;;;;;5069030;28;20543;-58
2023/03/16 03:02:41;;;;;;;19.20;9.90;;;2.20;97.20;;;;;;5021944;28;20545;-59
2023/03/16 03:05:08;;;;;;;32.50;14.17;;;2.20;96.90;;;;;;5072202;28;20478;-59
2023/03/16 03:07:34;;;;;;;29.20;13.17;;;2.20;96.70;;;;;;5059164;28;20487;-59
2023/03/16 03:10:02;;;;;;;41.60;16.53;;;2.20;96.60;;;;;;5067523;28;21035;-59
2023/03/16 03:12:29;;;;;;;26.20;13.47;;;2.30;96.50;;;;;;5058638;28;20482;-59
2023/03/16 03:14:56;;;;;;;29.83;12.83;;;2.30;96.40;;;;;;5076341;28;20482;-59
2023/03/16 03:17:28;;;;;;;24.90;9.80;;;2.30;96.40;;;;;;5075279;28;20915;-58
2023/03/16 03:19:57;;;;;;;26.17;10.90;;;2.20;96.50;;;;;;5063307;28;20489;-59
2023/03/16 03:22:25;;;;;;;25.90;10.47;;;2.20;96.40;;;;;;5069025;28;20486;-58
2023/03/16 03:24:52;;;;;;;28.57;11.83;;;2.20;96.40;;;;;;5077135;28;20495;-59
2023/03/16 03:27:19;;;;;;;24.20;10.60;;;2.10;96.50;;;;;;5058491;28;20494;-58
2023/03/16 03:29:45;;;;;;;20.23;9.57;;;2.10;96.60;;;;;;5059372;28;20693;-59
2023/03/16 03:32:12;;;;;;;43.03;16.20;;;2.10;96.70;;;;;;5055783;28;20462;-58
2023/03/16 03:34:41;;;;;;;18.10;8.23;;;2.20;96.90;;;;;;5046699;28;21658;-59
2023/03/16 03:37:09;;;;;;;39.27;14.63;;;2.20;97.20;;;;;;5067045;28;20486;-58
2023/03/16 03:39:35;;;;;;;24.03;10.93;;;2.30;97.30;;;;;;5050171;28;21080;-60
2023/03/16 03:42:02;;;;;;;30.03;11.70;;;2.30;97.40;;;;;;5067120;28;20505;-59
2023/03/16 03:44:31;;;;;;;26.27;11.10;;;2.40;97.20;;;;;;5056759;28;20490;-59
2023/03/16 03:46:58;;;;;;;21.20;10.17;;;2.40;97.00;;;;;;5044026;28;20490;-59
2023/03/16 03:49:25;;;;;;;22.53;10.97;;;2.50;97.20;;;;;;5071344;28;20483;-59
2023/03/16 03:51:51;;;;;;;25.57;11.53;;;2.50;97.10;;;;;;5067144;28;20543;-59
2023/03/16 03:54:19;;;;;;;36.63;14.40;;;2.50;97.00;;;;;;5066680;28;20491;-59
2023/03/16 03:56:46;;;;;;;22.90;11.17;;;2.40;97.00;;;;;;5059311;28;20528;-59
2023/03/16 03:59:13;;;;;;;40.37;15.23;;;2.40;97.10;;;;;;5046959;28;21006;-60
2023/03/16 04:01:39;;;;;;;19.10;10.23;;;2.30;97.30;;;;;;5060380;28;20857;-59
2023/03/16 04:04:06;;;;;;;22.43;9.57;;;2.30;97.30;;;;;;5051002;28;20505;-59
2023/03/16 04:06:32;;;;;;;23.13;10.53;;;2.30;97.30;;;;;;5044554;28;20495;-59
2023/03/16 04:08:59;;;;;;;25.40;12.57;;;2.30;97.30;;;;;;5053827;28;20563;-59
2023/03/16 04:11:27;;;;;;;29.20;12.83;;;2.30;97.50;;;;;;5054878;28;20512;-59
2023/03/16 04:13:54;;;;;;;23.67;10.67;;;2.30;97.60;;;;;;5051838;28;20559;-60
2023/03/16 04:16:21;;;;;;;19.20;9.53;;;2.30;97.30;;;;;;5057113;28;20474;-59
2023/03/16 04:18:48;;;;;;;23.20;9.70;;;2.30;97.00;;;;;;5067482;28;20482;-59
2023/03/16 04:21:16;;;;;;;42.77;14.80;;;2.40;97.20;;;;;;5059906;28;20482;-58
2023/03/16 04:23:43;;;;;;;21.80;9.80;;;2.40;97.20;;;;;;5035521;28;21227;-59
2023/03/16 04:26:10;;;;;;;31.53;13.60;;;2.40;97.00;;;;;;5068982;28;21060;-59
2023/03/16 04:28:38;;;;;;;18.17;8.97;;;2.40;97.00;;;;;;5062593;28;20531;-59
2023/03/16 04:31:06;;;;;;;32.30;12.87;;;2.30;97.00;;;;;;5065244;28;20486;-59
2023/03/16 04:33:33;;;;;;;23.73;10.33;;;2.30;97.10;;;;;;5071401;28;20488;-59
2023/03/16 04:36:01;;;;;;;20.63;9.57;;;2.30;97.00;;;;;;5061693;28;20483;-58
2023/03/16 04:38:28;;;;;;;24.40;11.27;;;2.40;97.00;;;;;;5070916;28;20586;-59
2023/03/16 04:40:55;;;;;;;22.67;9.70;;;2.40;97.00;;;;;;5068339;28;20494;-59
2023/03/16 04:43:22;;;;;;;21.17;10.10;;;2.30;96.90;;;;;;5072979;28;20535;-59
2023/03/16 04:45:50;;;;;;;31.90;12.60;;;2.40;96.90;;;;;;5062429;28;20596;-59
2023/03/16 04:48:16;;;;;;;36.90;15.10;;;2.30;96.90;;;;;;5049583;28;20484;-60
2023/03/16 04:50:43;;;;;;;21.03;10.50;;;2.40;96.80;;;;;;5066547;28;20547;-59
2023/03/16 04:53:10;;;;;;;41.07;14.30;;;2.40;96.70;;;;;;5066267;28;20565;-59
2023/03/16 04:55:36;;;;;;;21.60;11.13;;;2.40;96.60;;;;;;5052918;28;20956;-59
2023/03/16 04:58:03;;;;;;;32.10;13.30;;;2.40;96.60;;;;;;5066588;28;20486;-59
2023/03/16 05:00:30;;;;;;;27.27;11.80;;;3.50;97.10;;;;;;5064934;28;20524;-59
2023/03/16 05:02:58;;;;;;;27.13;11.73;;;2.40;96.50;;;;;;5067802;28;21010;-60
2023/03/16 05:05:25;;;;;;;20.03;9.53;;;2.40;96.40;;;;;;5070728;28;20998;-59
2023/03/16 05:07:52;;;;;;;28.57;11.40;;;2.30;96.30;;;;;;5062451;28;21046;-59
2023/03/16 05:10:19;;;;;;;33.50;12.50;;;2.30;96.30;;;;;;5069383;28;20844;-59
2023/03/16 05:12:46;;;;;;;17.67;8.40;;;2.20;96.20;;;;;;5066278;28;20470;-59
2023/03/16 05:15:13;;;;;;;46.57;15.63;;;2.20;96.40;;;;;;5064573;28;20852;-58
2023/03/16 05:17:41;;;;;;;18.07;8.87;;;2.10;96.50;;;;;;5075724;28;20978;-59
2023/03/16 05:20:11;;;;;;;37.00;13.33;;;2.00;96.70;;;;;;5056330;28;20528;-58
2023/03/16 05:22:39;;;;;;;16.47;8.00;;;1.70;97.50;;;;;;5052708;28;20495;-59
2023/03/16 05:25:07;;;;;;;33.07;14.00;;;1.70;97.80;;;;;;5052546;28;20478;-59
2023/03/16 05:27:34;;;;;;;20.87;10.83;;;1.80;97.90;;;;;;5061951;28;20479;-59
2023/03/16 05:30:01;;;;;;;26.70;12.40;;;1.90;97.70;;;;;;5081088;28;20485;-59
2023/03/16 05:32:27;;;;;;;22.50;10.40;;;2.00;97.60;;;;;;5065665;28;20483;-59
2023/03/16 05:34:54;;;;;;;20.73;9.80;;;2.00;97.50;;;;;;5065402;28;20478;-59
2023/03/16 05:37:23;;;;;;;41.33;12.00;;;2.10;97.50;;;;;;5064469;28;20516;-58
2023/03/16 05:39:49;;;;;;;19.10;9.63;;;2.20;97.40;;;;;;5073245;28;20696;-59
2023/03/16 05:42:16;;;;;;;41.73;15.53;;;2.20;97.40;;;;;;5076285;28;20559;-59
2023/03/16 05:44:43;;;;;;;18.30;10.13;;;2.30;97.40;;;;;;5066757;28;20478;-59
2023/03/16 05:47:10;;;;;;;27.00;12.13;;;2.30;97.30;;;;;;5053640;28;20862;-59
2023/03/16 05:49:37;;;;;;;21.77;10.90;;;2.30;97.50;;;;;;5042663;28;20486;-59
2023/03/16 05:52:09;;;;;;;23.03;11.27;;;2.30;97.70;;;;;;5054442;28;20614;-59
2023/03/16 05:54:38;;;;;;;23.97;9.93;;;2.40;97.80;;;;;;5036098;28;20532;-59
2023/03/16 05:57:05;;;;;;;39.37;14.10;;;2.40;97.80;;;;;;5068583;28;21017;-59
2023/03/16 05:59:32;;;;;;;27.50;10.77;;;2.50;97.80;;;;;;5075985;28;20478;-59
2023/03/16 06:01:59;;;;;;;29.47;12.10;;;2.50;97.80;;;;;;5053321;28;20721;-60
2023/03/16 06:04:25;;;;;;;27.33;12.87;;;2.60;97.80;;;;;;5066239;28;20986;-59
2023/03/16 06:06:52;;;;;;;30.03;11.13;;;2.70;97.70;;;;;;5070246;28;20637;-59
2023/03/16 06:09:19;;;;;;;39.03;15.60;;;2.70;97.70;;;;;;5064488;28;20482;-59
2023/03/16 06:11:47;;;;;;;20.97;10.33;;;2.70;97.70;;;;;;5038288;28;20481;-59
2023/03/16 06:14:16;;;;;;;39.50;14.80;;;2.80;97.70;;;;;;5061416;28;20484;-59
2023/03/16 06:16:42;;;;;;;20.67;11.27;;;2.80;97.70;;;;;;5065224;28;20487;-59
2023/03/16 06:19:09;;;;;;;38.07;16.00;;;2.90;97.90;;;;;;5060550;28;20486;-59
2023/03/16 06:21:36;;;;;;;24.93;12.50;;;3.00;97.80;;;;;;5072591;28;20994;-59
2023/03/16 06:24:03;;;;;;;34.87;15.60;;;3.00;97.80;;;;;;5040143;28;21010;-59
2023/03/16 06:26:29;;;;;;;28.00;12.80;;;3.10;97.90;;;;;;5075310;28;20486;-59
2023/03/16 06:28:57;;;;;;;32.63;11.73;;;3.20;97.80;;;;;;5075306;28;20491;-59
2023/03/16 06:31:24;;;;;;;27.13;13.27;;;3.20;97.80;;;;;;5052944;28;20531;-59
2023/03/16 06:33:51;;;;;;;30.50;15.77;;;3.30;97.90;;;;;;5069647;28;20506;-59
2023/03/16 06:36:17;;;;;;;27.00;12.10;;;3.40;98.10;;;;;;5070085;28;20532;-59
2023/03/16 06:38:44;;;;;;;21.30;12.33;;;3.50;98.30;;;;;;5035116;28;20524;-59
2023/03/16 06:41:11;;;;;;;37.10;17.20;;;3.60;98.20;;;;;;5073139;28;20528;-59
2023/03/16 06:43:37;;;;;;;27.93;11.80;;;3.70;98.10;;;;;;5063605;28;20542;-59
2023/03/16 06:46:06;;;;;;;24.60;14.90;;;3.80;98.10;;;;;;5071711;28;20491;-59
2023/03/16 06:48:32;;;;;;;28.20;15.13;;;4.20;98.90;;;;;;5050749;28;20479;-60
2023/03/16 06:50:59;;;;;;;29.53;15.50;;;5.20;99.60;;;;;;5078407;28;20470;-59
2023/03/16 06:53:26;;;;;;;22.80;16.00;;;6.10;98.90;;;;;;5068888;28;20516;-60
2023/03/16 06:55:52;;;;;;;26.47;17.60;;;7.00;98.00;;;;;;5060300;28;20487;-60
2023/03/16 06:58:20;;;;;;;22.03;12.60;;;8.30;96.70;;;;;;5042715;28;20999;-60
2023/03/16 07:00:46;;;;;;;17.13;12.97;;;9.10;95.70;;;;;;5068222;28;20467;-60
2023/03/16 07:03:14;;;;;;;21.83;14.60;;;9.90;94.80;;;;;;5053230;28;20789;-60
2023/03/16 07:05:41;;;;;;;21.03;11.60;;;11.00;93.20;;;;;;5090039;28;20501;-60
2023/03/16 07:08:09;;;;;;;19.67;14.13;;;11.30;92.60;;;;;;5060760;28;20486;-60
2023/03/16 07:10:35;;;;;;;13.77;11.77;;;12.40;92.00;;;;;;5083994;28;20919;-61
2023/03/16 07:13:03;;;;;;;19.00;11.27;;;13.50;90.80;;;;;;5059031;28;20943;-60
2023/03/16 07:15:30;;;;;;;11.60;10.40;;;14.20;90.10;;;;;;5053992;28;20536;-60
2023/03/16 07:17:56;;;;;;;11.30;9.77;;;14.90;88.90;;;;;;5078334;28;20497;-61
2023/03/16 07:20:25;;;;;;;16.60;9.10;;;15.80;86.40;;;;;;5069591;28;20485;-60
2023/03/16 07:22:52;;;;;;;12.47;10.47;;;16.20;85.60;;;;;;5074496;28;20474;-61
2023/03/16 07:25:19;;;;;;;14.73;10.77;;;16.70;84.60;;;;;;5039019;28;21457;-61
2023/03/16 07:27:46;;;;;;;16.10;9.20;;;17.20;82.60;;;;;;5055728;28;20604;-61
2023/03/16 07:30:13;;;;;;;11.73;10.60;;;17.50;82.50;;;;;;5063729;28;20490;-61
2023/03/16 07:32:41;;;;;;;8.70;7.80;;;17.80;81.60;;;;;;5061769;28;20479;-61
2023/03/16 07:35:08;;;;;;;16.23;9.43;;;18.10;81.20;;;;;;5050131;28;20485;-61
2023/03/16 07:37:36;;;;;;;9.27;8.33;;;18.40;80.10;;;;;;5062946;28;20535;-61
2023/03/16 07:40:06;;;;;;;9.23;8.33;;;18.70;80.30;;;;;;5071986;28;20479;-60
2023/03/16 07:42:34;;;;;;;9.30;8.30;;;18.90;77.60;;;;;;5055954;28;20486;-60
2023/03/16 07:45:01;;;;;;;12.50;8.47;;;18.40;75.10;;;;;;5057299;28;20478;-61
2023/03/16 07:47:29;;;;;;;9.83;8.83;;;17.90;78.40;;;;;;5041006;28;20894;-60
2023/03/16 07:49:56;;;;;;;11.37;9.30;;;17.60;79.00;;;;;;5048650;28;20485;-60
2023/03/16 07:52:22;;;;;;;11.50;8.03;;;17.30;78.50;;;;;;5066068;28;21690;-60
2023/03/16 07:54:51;;;;;;;8.93;8.03;;;16.90;78.00;;;;;;5062509;28;20497;-60
2023/03/16 07:57:18;;;;;;;8.87;7.97;;;16.60;79.20;;;;;;5089975;28;20489;-60
2023/03/16 07:59:44;;;;;;;10.57;7.03;;;16.20;80.00;;;;;;5093105;28;21165;-60
2023/03/16 08:02:13;;;;;;;16.53;10.37;;;16.00;80.30;;;;;;5090379;28;20541;-60
2023/03/16 08:04:41;;;;;;;7.87;6.60;;;15.80;81.20;;;;;;5091514;28;20511;-61
2023/03/16 08:07:08;;;;;;;12.73;9.77;;;15.80;81.40;;;;;;5061028;28;20616;-60
2023/03/16 08:09:35;;;;;;;7.90;6.03;;;15.20;78.30;;;;;;5073760;28;20479;-60
2023/03/16 08:12:04;;;;;;;6.03;5.10;;;14.60;78.70;;;;;;5054518;28;20478;-60
2023/03/16 08:14:33;;;;;;;10.53;6.60;;;13.50;77.70;;;;;;5073981;28;20516;-60
2023/03/16 08:17:00;;;;;;;20.30;4.87;;;11.40;79.80;;;;;;5073821;28;20559;-60
2023/03/16 08:19:27;;;;;;;7.80;6.17;;;10.90;82.10;;;;;;5074853;28;20498;-60
2023/03/16 08:21:53;;;;;;;6.10;4.80;;;10.40;83.30;;;;;;5072578;28;20551;-60
2023/03/16 08:24:20;;;;;;;14.73;6.90;;;10.10;86.20;;;;;;5079442;28;20478;-60
2023/03/16 08:26:47;;;;;;;5.70;4.73;;;9.90;86.90;;;;;;5058244;28;20486;-60
2023/03/16 08:29:15;;;;;;;11.20;7.70;;;9.80;90.50;;;;;;5056018;28;20713;-59
2023/03/16 08:31:42;;;;;;;16.80;4.63;;;9.40;88.00;;;;;;5079274;28;20474;-60
2023/03/16 08:34:09;;;;;;;15.27;10.33;;;9.70;90.00;;;;;;5071068;28;20484;-60
2023/03/16 08:36:36;;;;;;;8.00;5.97;;;9.50;89.90;;;;;;5068852;28;20489;-60
2023/03/16 08:39:04;;;;;;;19.20;5.90;;;9.40;90.10;;;;;;5084512;28;20484;-60
2023/03/16 08:41:31;;;;;;;14.90;6.53;;;9.30;90.20;;;;;;5075827;28;20482;-60
2023/03/16 08:43:58;;;;;;;11.30;6.63;;;9.30;90.60;;;;;;5058433;28;20466;-60
2023/03/16 08:46:27;;;;;;;17.13;5.77;;;8.80;90.50;;;;;;5092636;28;20481;-60
2023/03/16 08:48:54;;;;;;;13.33;6.33;;;8.60;90.90;;;;;;5076994;28;20968;-60
2023/03/16 08:51:21;;;;;;;9.73;6.80;;;8.50;91.30;;;;;;5078109;28;20485;-60
2023/03/16 08:53:48;;;;;;;14.23;6.70;;;8.40;91.50;;;;;;5076003;28;20541;-60
2023/03/16 08:56:15;;;;;;;17.03;10.13;;;8.50;91.60;;;;;;5072892;28;20846;-60
2023/03/16 08:58:44;;;;;;;7.53;5.60;;;8.60;91.30;;;;;;5064153;28;20488;-60
2023/03/16 09:01:12;;;;;;;19.13;9.10;;;8.60;91.30;;;;;;5064925;28;20560;-60
2023/03/16 09:03:41;;;;;;;9.23;5.90;;;8.50;91.40;;;;;;5060895;28;20474;-60
2023/03/16 09:06:09;;;;;;;18.27;10.83;;;8.60;91.70;;;;;;5085611;28;20564;-60
2023/03/16 09:08:37;;;;;;;15.27;6.60;;;8.80;92.30;;;;;;5083238;28;20478;-60
2023/03/16 09:11:06;;;;;;;11.23;6.10;;;8.80;91.50;;;;;;5073940;28;20736;-60
2023/03/16 09:13:34;;;;;;;10.37;6.63;;;9.10;93.00;;;;;;5087415;28;20531;-60
2023/03/16 09:16:00;;;;;;;12.20;7.83;;;9.40;91.20;;;;;;5057606;28;20477;-60
2023/03/16 09:18:27;;;;;;;8.17;6.17;;;9.40;91.50;;;;;;5090585;28;20481;-60
2023/03/16 09:20:58;;;;;;;11.03;7.23;;;9.20;91.10;;;;;;5063509;28;20531;-60
2023/03/16 09:23:26;;;;;;;7.83;5.30;;;9.60;91.80;;;;;;5062708;28;20908;-60
2023/03/16 09:25:53;;;;;;;9.80;7.00;;;9.90;91.40;;;;;;5031288;28;20474;-60
2023/03/16 09:28:20;;;;;;;9.93;6.80;;;10.20;90.00;;;;;;5067607;28;20490;-60
2023/03/16 09:30:48;;;;;;;5.80;4.90;;;9.70;89.20;;;;;;5068405;28;20842;-60
2023/03/16 09:33:15;;;;;;;15.70;10.10;;;9.60;89.40;;;;;;5064044;28;20558;-60
2023/03/16 09:35:43;;;;;;;13.80;4.53;;;9.60;90.70;;;;;;5073834;28;20501;-60
2023/03/16 09:38:11;;;;;;;13.70;8.47;;;9.70;90.50;;;;;;5056740;28;20543;-60
2023/03/16 09:40:38;;;;;;;9.00;6.93;;;9.70;89.90;;;;;;5076149;28;20478;-61
2023/03/16 09:43:25;;;;;;;9.77;7.17;;;9.70;90.00;;;;;;5062764;28;20474;-60
2023/03/16 09:45:59;;;;;;;10.83;7.13;;;9.70;90.00;;;;;;5072250;28;20946;-61
2023/03/16 09:48:28;;;;;;;8.73;4.03;;;9.50;89.30;;;;;;5049708;28;20480;-60
2023/03/16 09:50:58;;;;;;;8.10;5.17;;;9.60;90.80;;;;;;5055095;28;20921;-60
2023/03/16 09:53:29;;;;;;;9.53;6.30;;;9.90;90.00;;;;;;5087774;28;20538;-60
2023/03/16 09:56:02;;;;;;;8.30;5.03;;;9.80;89.60;;;;;;5078207;28;20458;-60
2023/03/16 09:58:29;;;;;;;9.90;6.80;;;9.90;90.70;;;;;;5049986;28;20715;-60
2023/03/16 10:01:06;;;;;;;14.90;8.03;;;10.00;89.80;;;;;;5071286;28;20742;-60
2023/03/16 10:03:55;;;;;;;11.13;6.20;;;9.90;89.80;;;;;;5070001;28;20661;-61
2023/03/16 10:06:23;;;;;;;10.00;6.67;;;10.20;89.20;;;;;;5068382;28;20962;-60
2023/03/16 10:08:57;;;;;;;6.37;4.67;;;10.10;88.70;;;;;;5092806;28;21351;-60
2023/03/16 10:11:30;;;;;;;26.03;7.37;;;10.60;90.30;;;;;;5075396;28;20661;-60
2023/03/16 10:14:02;;;;;;;7.83;5.10;;;10.60;88.00;;;;;;5056220;28;20486;-60
2023/03/16 10:16:37;;;;;;;14.07;7.90;;;10.90;89.60;;;;;;5074906;28;20495;-60
2023/03/16 10:19:12;;;;;;;13.83;8.40;;;11.10;88.90;;;;;;5067274;28;20546;-60
2023/03/16 10:21:40;;;;;;;7.63;5.03;;;11.40;89.30;;;;;;5050262;28;20473;-60
2023/03/16 10:24:19;;;;;;;14.17;7.47;;;12.10;88.70;;;;;;5059083;28;20960;-60
2023/03/16 10:26:53;;;;;;;8.00;3.93;;;11.30;84.70;;;;;;5051120;28;20910;-59
2023/03/16 10:29:20;;;;;;;14.50;6.60;;;11.00;83.40;;;;;;5087095;28;20556;-59
2023/03/16 10:31:47;;;;;;;6.63;5.00;;;10.90;84.90;;;;;;5085416;28;20481;-60
2023/03/16 10:34:14;;;;;;;11.00;7.60;;;10.90;86.10;;;;;;5057465;28;20564;-61
2023/03/16 10:36:44;;;;;;;12.70;5.87;;;10.70;85.70;;;;;;5056081;28;20551;-60
2023/03/16 10:39:15;;;;;;;16.77;10.50;;;10.70;85.10;;;;;;5048292;28;20485;-60
2023/03/16 10:41:44;;;;;;;5.57;3.90;;;10.90;86.70;;;;;;5048624;28;21142;-60
2023/03/16 10:44:12;;;;;;;15.50;9.07;;;11.20;86.70;;;;;;5071228;28;20574;-60
2023/03/16 10:46:41;;;;;;;7.97;5.93;;;11.40;86.20;;;;;;5052906;28;20544;-60
2023/03/16 10:49:21;;;;;;;13.43;8.57;;;11.40;82.80;;;;;;5065125;28;20483;-60
2023/03/16 10:51:48;;;;;;;7.27;5.27;;;11.20;82.80;;;;;;5057382;28;20527;-61
2023/03/16 10:54:23;;;;;;;13.27;7.67;;;11.10;83.40;;;;;;5070333;28;20486;-59
2023/03/16 10:56:50;;;;;;;12.33;8.00;;;11.50;85.50;;;;;;5081393;28;20517;-62
2023/03/16 10:59:28;;;;;;;18.30;9.17;;;11.50;84.20;;;;;;5062167;28;20470;-59
2023/03/16 11:01:55;;;;;;;12.60;5.70;;;11.70;82.40;;;;;;5052180;28;20474;-60
2023/03/16 11:04:23;;;;;;;8.67;5.77;;;11.80;82.20;;;;;;5070075;28;20474;-60
2023/03/16 11:06:54;;;;;;;12.13;6.80;;;11.70;81.20;;;;;;5074776;28;21135;-60
2023/03/16 11:09:26;;;;;;;9.47;4.53;;;11.30;78.60;;;;;;5066122;28;20939;-60
2023/03/16 11:11:53;;;;;;;16.23;9.20;;;11.40;79.80;;;;;;5084094;28;20519;-61
2023/03/16 11:14:23;;;;;;;10.07;5.80;;;11.50;80.00;;;;;;5068608;28;20483;-61
2023/03/16 11:16:57;;;;;;;6.50;4.60;;;11.50;80.60;;;;;;5071084;28;21114;-60
2023/03/16 11:19:28;;;;;;;12.80;7.57;;;11.80;79.10;;;;;;5059072;28;20501;-61
2023/03/16 11:22:00;;;;;;;14.93;6.90;;;11.90;82.10;;;;;;5060371;28;20517;-61
2023/03/16 11:24:37;;;;;;;7.70;5.43;;;11.90;79.80;;;;;;5063159;28;20829;-60
2023/03/16 11:27:08;;;;;;;18.27;7.80;;;12.20;81.10;;;;;;5053356;28;20544;-60
2023/03/16 11:29:46;;;;;;;10.97;6.10;;;12.50;84.30;;;;;;5070124;28;20482;-60
2023/03/16 11:32:19;;;;;;;12.00;7.17;;;12.80;84.40;;;;;;5066932;28;20569;-60
2023/03/16 11:34:47;;;;;;;7.07;4.67;;;12.50;79.00;;;;;;5069716;28;20485;-60
2023/03/16 11:37:28;;;;;;;12.73;7.90;;;12.20;76.00;;;;;;5071213;28;20996;-60
2023/03/16 11:40:13;;;;;;;10.60;6.67;;;12.40;77.60;;;;;;5075516;28;20464;-60
2023/03/16 11:42:47;;;;;;;7.00;4.87;;;12.30;78.10;;;;;;5069759;28;20489;-60
2023/03/16 11:45:19;;;;;;;15.20;9.13;;;12.60;79.70;;;;;;5079558;28;21036;-61
2023/03/16 11:48:04;;;;;;;7.70;4.87;;;12.50;77.90;;;;;;5061494;28;20494;-61
2023/03/16 11:50:36;;;;;;;15.13;6.20;;;12.40;76.90;;;;;;5072717;28;20540;-61
2023/03/16 11:53:10;;;;;;;15.23;7.00;;;12.70;79.20;;;;;;5046829;28;21001;-61
2023/03/16 11:55:45;;;;;;;11.90;5.57;;;12.50;76.50;;;;;;5083059;28;20482;-61
2023/03/16 11:58:23;;;;;;;34.67;12.53;;;12.60;78.10;;;;;;5073472;28;21040;-61
2023/03/16 12:00:58;;;;;;;15.57;6.57;;;12.50;77.90;;;;;;5048317;28;20527;-61
2023/03/16 12:03:57;;;;;;;15.10;6.00;;;12.70;77.30;;;;;;5074401;28;20470;-60
2023/03/16 12:06:33;;;;;;;11.30;5.17;;;12.80;77.40;;;;;;5057793;28;20471;-60
2023/03/16 12:09:27;;;;;;;16.00;6.10;;;13.20;78.50;;;;;;5067328;28;20744;-60
2023/03/16 12:12:00;;;;;;;14.83;6.40;;;14.20;76.80;;;;;;5029528;28;20480;-61
2023/03/16 12:14:30;;;;;;;21.37;7.50;;;13.60;78.60;;;;;;5070731;28;20466;-60
2023/03/16 12:17:01;;;;;;;20.37;7.10;;;13.50;76.70;;;;;;5056792;28;21028;-61
2023/03/16 12:19:37;;;;;;;18.20;7.57;;;13.20;74.50;;;;;;5067655;28;20842;-61
2023/03/16 12:22:12;;;;;;;24.63;9.30;;;13.20;75.90;;;;;;5062111;28;20583;-61
2023/03/16 12:24:43;;;;;;;16.47;6.67;;;13.30;76.60;;;;;;5030101;28;20470;-61
2023/03/16 12:27:16;;;;;;;25.80;10.13;;;13.20;75.70;;;;;;5052143;28;20647;-61
2023/03/16 12:29:55;;;;;;;12.17;5.80;;;13.10;74.30;;;;;;5073626;28;20519;-61
2023/03/16 12:32:31;;;;;;;14.50;6.70;;;13.30;74.60;;;;;;5052612;28;20491;-60
2023/03/16 12:35:03;;;;;;;15.70;7.33;;;13.40;74.50;;;;;;5077976;28;20485;-61
2023/03/16 12:37:37;;;;;;;20.10;7.20;;;13.30;75.80;;;;;;5092427;28;20534;-61
2023/03/16 12:40:18;;;;;;;25.30;9.93;;;13.40;73.70;;;;;;5078835;28;20797;-61
2023/03/16 12:43:01;;;;;;;11.87;4.40;;;13.30;71.30;;;;;;5073979;28;20490;-61
2023/03/16 12:45:36;;;;;;;21.37;9.23;;;13.40;72.30;;;;;;5071827;28;20473;-61
2023/03/16 12:48:14;;;;;;;14.03;4.37;;;13.40;71.30;;;;;;5067192;28;20496;-61
2023/03/16 12:50:49;;;;;;;16.80;6.80;;;13.50;73.20;;;;;;5077364;28;20461;-61